sensor_id;sensor_type;location;lat;lon;timestamp;P1;durP1;ratioP1;P2;durP2;ratioP2
7497;SDS011;3790;48.806;9.140;2023-02-08T00:02:47;10.50;;;5.23;;
7497;SDS011;3790;48.806;9.140;2023-02-08T00:07:47;9.33;;;5.47;;
7497;SDS011;3790;48.806;9.140;2023-02-08T00:12:48;9.63;;;5.50;;
7497;SDS011;3790;48.806;9.140;2023-02-08T00:17:51;9.33;;;5.80;;
7497;SDS011;3790;48.806;9.140;2023-02-08T00:22:51;7.80;;;4.67;;
7497;SDS011;3790;48.806;9.140;2023-02-08T00:27:52;9.17;;;5.70;;
7497;SDS011;3790;48.806;9.140;2023-02-08T00:32:52;9.00;;;5.40;;
7497;SDS011;3790;48.806;9.140;2023-02-08T00:37:53;8.00;;;5.10;;
7497;SDS011;3790;48.806;9.140;2023-02-08T00:42:53;7.33;;;5.07;;
7497;SDS011;3790;48.806;9.140;2023-02-08T00:47:54;8.40;;;5.43;;
7497;SDS011;3790;48.806;9.140;2023-02-08T00:52:54;10.57;;;5.77;;
7497;SDS011;3790;48.806;9.140;2023-02-08T00:57:55;11.63;;;5.63;;
7497;SDS011;3790;48.806;9.140;2023-02-08T01:02:55;9.53;;;5.40;;
7497;SDS011;3790;48.806;9.140;2023-02-08T01:07:56;8.77;;;4.90;;
7497;SDS011;3790;48.806;9.140;2023-02-08T01:12:56;8.10;;;5.07;;
7497;SDS011;3790;48.806;9.140;2023-02-08T01:17:57;11.03;;;5.43;;
7497;SDS011;3790;48.806;9.140;2023-02-08T01:22:57;7.53;;;4.77;;
7497;SDS011;3790;48.806;9.140;2023-02-08T01:27:58;6.27;;;4.60;;
7497;SDS011;3790;48.806;9.140;2023-02-08T01:32:59;9.13;;;5.30;;
7497;SDS011;3790;48.806;9.140;2023-02-08T01:37:59;10.37;;;5.33;;
7497;SDS011;3790;48.806;9.140;2023-02-08T01:42:59;7.53;;;5.13;;
7497;SDS011;3790;48.806;9.140;2023-02-08T01:48:02;8.07;;;4.97;;
7497;SDS011;3790;48.806;9.140;2023-02-08T01:53:07;8.20;;;4.73;;
7497;SDS011;3790;48.806;9.140;2023-02-08T01:58:08;7.33;;;4.57;;
7497;SDS011;3790;48.806;9.140;2023-02-08T02:03:11;7.27;;;4.33;;
7497;SDS011;3790;48.806;9.140;2023-02-08T02:08:11;12.53;;;5.97;;
7497;SDS011;3790;48.806;9.140;2023-02-08T02:13:14;10.30;;;5.53;;
7497;SDS011;3790;48.806;9.140;2023-02-08T02:18:31;8.90;;;5.63;;
7497;SDS011;3790;48.806;9.140;2023-02-08T02:44:45;8.60;;;5.33;;
7497;SDS011;3790;48.806;9.140;2023-02-08T02:49:57;8.00;;;4.53;;
7497;SDS011;3790;48.806;9.140;2023-02-08T02:55:12;9.80;;;5.63;;
7497;SDS011;3790;48.806;9.140;2023-02-08T03:00:20;9.93;;;5.73;;
7497;SDS011;3790;48.806;9.140;2023-02-08T03:05:23;12.07;;;5.97;;
7497;SDS011;3790;48.806;9.140;2023-02-08T03:10:31;10.63;;;6.17;;
7497;SDS011;3790;48.806;9.140;2023-02-08T03:26:44;8.80;;;5.83;;
7497;SDS011;3790;48.806;9.140;2023-02-08T03:31:59;11.23;;;6.53;;
7497;SDS011;3790;48.806;9.140;2023-02-08T03:37:10;9.47;;;5.87;;
7497;SDS011;3790;48.806;9.140;2023-02-08T03:42:25;10.67;;;6.10;;
7497;SDS011;3790;48.806;9.140;2023-02-08T03:47:32;9.53;;;6.27;;
7497;SDS011;3790;48.806;9.140;2023-02-08T03:52:36;11.63;;;6.23;;
7497;SDS011;3790;48.806;9.140;2023-02-08T03:57:47;9.50;;;6.73;;
7497;SDS011;3790;48.806;9.140;2023-02-08T04:02:59;9.07;;;6.33;;
7497;SDS011;3790;48.806;9.140;2023-02-08T04:08:05;9.43;;;6.40;;
7497;SDS011;3790;48.806;9.140;2023-02-08T04:13:06;10.03;;;6.83;;
7497;SDS011;3790;48.806;9.140;2023-02-08T04:18:06;11.93;;;7.27;;
7497;SDS011;3790;48.806;9.140;2023-02-08T04:23:07;9.93;;;5.60;;
7497;SDS011;3790;48.806;9.140;2023-02-08T04:28:08;8.03;;;5.97;;
7497;SDS011;3790;48.806;9.140;2023-02-08T04:33:08;15.43;;;7.47;;
7497;SDS011;3790;48.806;9.140;2023-02-08T04:38:10;8.67;;;5.97;;
7497;SDS011;3790;48.806;9.140;2023-02-08T04:43:10;11.23;;;6.77;;
7497;SDS011;3790;48.806;9.140;2023-02-08T04:48:11;11.50;;;6.73;;
7497;SDS011;3790;48.806;9.140;2023-02-08T04:53:11;12.60;;;6.90;;
7497;SDS011;3790;48.806;9.140;2023-02-08T04:58:12;12.50;;;7.43;;
7497;SDS011;3790;48.806;9.140;2023-02-08T05:03:13;9.67;;;7.10;;
7497;SDS011;3790;48.806;9.140;2023-02-08T05:08:14;10.00;;;6.33;;
7497;SDS011;3790;48.806;9.140;2023-02-08T05:13:14;9.40;;;5.63;;
7497;SDS011;3790;48.806;9.140;2023-02-08T05:18:15;12.17;;;6.80;;
7497;SDS011;3790;48.806;9.140;2023-02-08T05:23:15;12.37;;;6.83;;
7497;SDS011;3790;48.806;9.140;2023-02-08T05:28:16;10.67;;;7.13;;
7497;SDS011;3790;48.806;9.140;2023-02-08T05:33:16;9.00;;;6.47;;
7497;SDS011;3790;48.806;9.140;2023-02-08T05:38:17;8.40;;;5.83;;
7497;SDS011;3790;48.806;9.140;2023-02-08T05:43:18;15.53;;;7.53;;
7497;SDS011;3790;48.806;9.140;2023-02-08T05:48:18;11.00;;;6.63;;
7497;SDS011;3790;48.806;9.140;2023-02-08T05:53:19;12.33;;;7.13;;
7497;SDS011;3790;48.806;9.140;2023-02-08T05:58:19;10.03;;;6.43;;
7497;SDS011;3790;48.806;9.140;2023-02-08T06:03:20;12.17;;;7.10;;
7497;SDS011;3790;48.806;9.140;2023-02-08T06:08:21;9.73;;;6.43;;
7497;SDS011;3790;48.806;9.140;2023-02-08T06:13:21;12.70;;;6.97;;
7497;SDS011;3790;48.806;9.140;2023-02-08T06:18:22;12.97;;;7.20;;
7497;SDS011;3790;48.806;9.140;2023-02-08T06:23:23;9.83;;;6.70;;
7497;SDS011;3790;48.806;9.140;2023-02-08T06:28:23;8.73;;;6.30;;
7497;SDS011;3790;48.806;9.140;2023-02-08T06:33:24;11.17;;;6.93;;
7497;SDS011;3790;48.806;9.140;2023-02-08T06:38:24;13.07;;;7.67;;
7497;SDS011;3790;48.806;9.140;2023-02-08T06:43:25;14.77;;;7.37;;
7497;SDS011;3790;48.806;9.140;2023-02-08T06:48:26;14.03;;;7.13;;
7497;SDS011;3790;48.806;9.140;2023-02-08T06:53:26;14.27;;;7.77;;
7497;SDS011;3790;48.806;9.140;2023-02-08T06:58:27;12.40;;;6.87;;
7497;SDS011;3790;48.806;9.140;2023-02-08T07:03:27;10.30;;;5.60;;
7497;SDS011;3790;48.806;9.140;2023-02-08T07:08:30;10.73;;;6.47;;
7497;SDS011;3790;48.806;9.140;2023-02-08T07:13:32;12.33;;;7.43;;
7497;SDS011;3790;48.806;9.140;2023-02-08T07:18:32;10.23;;;6.80;;
7497;SDS011;3790;48.806;9.140;2023-02-08T07:23:33;13.67;;;7.20;;
7497;SDS011;3790;48.806;9.140;2023-02-08T07:28:35;9.93;;;7.23;;
7497;SDS011;3790;48.806;9.140;2023-02-08T07:33:35;14.20;;;7.10;;
7497;SDS011;3790;48.806;9.140;2023-02-08T07:38:36;12.53;;;7.00;;
7497;SDS011;3790;48.806;9.140;2023-02-08T07:43:38;12.03;;;7.40;;
7497;SDS011;3790;48.806;9.140;2023-02-08T07:48:39;13.07;;;7.17;;
7497;SDS011;3790;48.806;9.140;2023-02-08T07:53:40;13.47;;;7.67;;
7497;SDS011;3790;48.806;9.140;2023-02-08T07:58:40;11.17;;;6.33;;
7497;SDS011;3790;48.806;9.140;2023-02-08T08:03:41;11.87;;;7.63;;
7497;SDS011;3790;48.806;9.140;2023-02-08T08:08:41;9.90;;;7.33;;
7497;SDS011;3790;48.806;9.140;2023-02-08T08:13:46;13.43;;;7.67;;
7497;SDS011;3790;48.806;9.140;2023-02-08T08:18:46;10.23;;;6.63;;
7497;SDS011;3790;48.806;9.140;2023-02-08T08:23:47;13.13;;;8.03;;
7497;SDS011;3790;48.806;9.140;2023-02-08T08:28:48;11.37;;;7.30;;
7497;SDS011;3790;48.806;9.140;2023-02-08T08:33:48;10.63;;;7.03;;
7497;SDS011;3790;48.806;9.140;2023-02-08T08:38:49;11.33;;;6.80;;
7497;SDS011;3790;48.806;9.140;2023-02-08T08:43:50;11.00;;;7.03;;
7497;SDS011;3790;48.806;9.140;2023-02-08T08:48:51;14.20;;;6.87;;
7497;SDS011;3790;48.806;9.140;2023-02-08T08:53:51;12.57;;;6.87;;
7497;SDS011;3790;48.806;9.140;2023-02-08T08:58:52;10.13;;;6.40;;
7497;SDS011;3790;48.806;9.140;2023-02-08T09:03:52;13.30;;;6.87;;
7497;SDS011;3790;48.806;9.140;2023-02-08T09:08:53;12.23;;;6.23;;
7497;SDS011;3790;48.806;9.140;2023-02-08T09:13:53;10.67;;;6.93;;
7497;SDS011;3790;48.806;9.140;2023-02-08T09:18:55;11.10;;;6.03;;
7497;SDS011;3790;48.806;9.140;2023-02-08T09:23:55;12.90;;;6.73;;
7497;SDS011;3790;48.806;9.140;2023-02-08T09:28:56;11.00;;;6.13;;
7497;SDS011;3790;48.806;9.140;2023-02-08T09:33:58;15.23;;;6.97;;
7497;SDS011;3790;48.806;9.140;2023-02-08T09:39:01;10.90;;;6.57;;
7497;SDS011;3790;48.806;9.140;2023-02-08T09:49:31;9.57;;;6.23;;
7497;SDS011;3790;48.806;9.140;2023-02-08T09:54:38;10.90;;;6.40;;
7497;SDS011;3790;48.806;9.140;2023-02-08T09:59:54;13.13;;;6.43;;
7497;SDS011;3790;48.806;9.140;2023-02-08T10:05:00;14.63;;;6.20;;
7497;SDS011;3790;48.806;9.140;2023-02-08T10:15:52;16.80;;;7.00;;
7497;SDS011;3790;48.806;9.140;2023-02-08T10:26:43;13.63;;;5.53;;
7497;SDS011;3790;48.806;9.140;2023-02-08T10:37:20;8.23;;;5.47;;
7497;SDS011;3790;48.806;9.140;2023-02-08T10:42:33;11.00;;;5.70;;
7497;SDS011;3790;48.806;9.140;2023-02-08T10:47:38;8.00;;;5.43;;
7497;SDS011;3790;48.806;9.140;2023-02-08T10:52:43;7.40;;;5.67;;
7497;SDS011;3790;48.806;9.140;2023-02-08T10:57:45;14.43;;;5.97;;
7497;SDS011;3790;48.806;9.140;2023-02-08T11:02:48;10.50;;;6.27;;
7497;SDS011;3790;48.806;9.140;2023-02-08T11:08:13;9.80;;;6.20;;
7497;SDS011;3790;48.806;9.140;2023-02-08T11:13:17;8.97;;;6.23;;
7497;SDS011;3790;48.806;9.140;2023-02-08T11:23:30;10.43;;;6.10;;
7497;SDS011;3790;48.806;9.140;2023-02-08T11:28:32;9.37;;;5.13;;
7497;SDS011;3790;48.806;9.140;2023-02-08T11:33:33;8.73;;;5.27;;
7497;SDS011;3790;48.806;9.140;2023-02-08T11:38:34;8.43;;;5.10;;
7497;SDS011;3790;48.806;9.140;2023-02-08T11:43:39;8.30;;;5.40;;
7497;SDS011;3790;48.806;9.140;2023-02-08T11:48:44;8.90;;;5.03;;
7497;SDS011;3790;48.806;9.140;2023-02-08T11:53:48;10.97;;;5.63;;
7497;SDS011;3790;48.806;9.140;2023-02-08T11:58:56;7.70;;;4.27;;
7497;SDS011;3790;48.806;9.140;2023-02-08T12:03:59;8.47;;;4.67;;
7497;SDS011;3790;48.806;9.140;2023-02-08T12:09:06;8.13;;;4.10;;
7497;SDS011;3790;48.806;9.140;2023-02-08T12:24:48;8.07;;;4.23;;
7497;SDS011;3790;48.806;9.140;2023-02-08T12:30:05;5.33;;;3.27;;
7497;SDS011;3790;48.806;9.140;2023-02-08T12:51:22;4.93;;;2.87;;
7497;SDS011;3790;48.806;9.140;2023-02-08T12:56:37;5.87;;;2.60;;
7497;SDS011;3790;48.806;9.140;2023-02-08T13:01:43;5.07;;;2.90;;
7497;SDS011;3790;48.806;9.140;2023-02-08T13:06:52;4.93;;;3.10;;
7497;SDS011;3790;48.806;9.140;2023-02-08T13:11:58;5.60;;;3.33;;
7497;SDS011;3790;48.806;9.140;2023-02-08T13:17:12;4.60;;;2.90;;
7497;SDS011;3790;48.806;9.140;2023-02-08T13:22:20;5.07;;;2.93;;
7497;SDS011;3790;48.806;9.140;2023-02-08T13:27:22;5.27;;;2.67;;
7497;SDS011;3790;48.806;9.140;2023-02-08T13:32:29;4.67;;;2.90;;
7497;SDS011;3790;48.806;9.140;2023-02-08T13:37:49;4.87;;;2.97;;
7497;SDS011;3790;48.806;9.140;2023-02-08T13:48:24;4.10;;;2.60;;
7497;SDS011;3790;48.806;9.140;2023-02-08T14:09:23;5.33;;;2.33;;
7497;SDS011;3790;48.806;9.140;2023-02-08T14:14:36;6.00;;;2.63;;
7497;SDS011;3790;48.806;9.140;2023-02-08T14:19:38;8.80;;;2.87;;
7497;SDS011;3790;48.806;9.140;2023-02-08T14:30:04;10.77;;;2.73;;
7497;SDS011;3790;48.806;9.140;2023-02-08T14:50:41;5.40;;;3.17;;
7497;SDS011;3790;48.806;9.140;2023-02-08T14:55:51;5.97;;;3.33;;
7497;SDS011;3790;48.806;9.140;2023-02-08T15:00:59;6.33;;;3.47;;
7497;SDS011;3790;48.806;9.140;2023-02-08T15:06:06;5.53;;;3.37;;
7497;SDS011;3790;48.806;9.140;2023-02-08T15:11:18;5.63;;;2.93;;
7497;SDS011;3790;48.806;9.140;2023-02-08T15:16:45;5.47;;;3.70;;
7497;SDS011;3790;48.806;9.140;2023-02-08T15:21:46;7.13;;;3.63;;
7497;SDS011;3790;48.806;9.140;2023-02-08T15:26:51;7.17;;;4.13;;
7497;SDS011;3790;48.806;9.140;2023-02-08T15:31:53;7.90;;;4.10;;
7497;SDS011;3790;48.806;9.140;2023-02-08T15:36:55;6.57;;;3.70;;
7497;SDS011;3790;48.806;9.140;2023-02-08T15:41:56;5.70;;;3.93;;
7497;SDS011;3790;48.806;9.140;2023-02-08T15:46:59;6.17;;;3.83;;
7497;SDS011;3790;48.806;9.140;2023-02-08T15:52:01;6.50;;;3.97;;
7497;SDS011;3790;48.806;9.140;2023-02-08T15:57:17;6.47;;;3.63;;
7497;SDS011;3790;48.806;9.140;2023-02-08T16:02:31;6.60;;;4.10;;
7497;SDS011;3790;48.806;9.140;2023-02-08T16:07:38;6.83;;;3.83;;
7497;SDS011;3790;48.806;9.140;2023-02-08T16:12:42;6.47;;;3.97;;
7497;SDS011;3790;48.806;9.140;2023-02-08T16:17:44;7.97;;;4.20;;
7497;SDS011;3790;48.806;9.140;2023-02-08T16:22:52;9.83;;;4.50;;
7497;SDS011;3790;48.806;9.140;2023-02-08T16:27:55;7.73;;;4.80;;
7497;SDS011;3790;48.806;9.140;2023-02-08T16:32:55;5.50;;;3.63;;
7497;SDS011;3790;48.806;9.140;2023-02-08T16:37:57;6.10;;;3.60;;
7497;SDS011;3790;48.806;9.140;2023-02-08T16:43:16;6.70;;;4.43;;
7497;SDS011;3790;48.806;9.140;2023-02-08T16:48:30;8.70;;;4.50;;
7497;SDS011;3790;48.806;9.140;2023-02-08T16:53:34;8.47;;;4.23;;
7497;SDS011;3790;48.806;9.140;2023-02-08T16:58:35;8.63;;;4.63;;
7497;SDS011;3790;48.806;9.140;2023-02-08T17:03:36;12.37;;;5.50;;
7497;SDS011;3790;48.806;9.140;2023-02-08T17:08:37;8.27;;;5.10;;
7497;SDS011;3790;48.806;9.140;2023-02-08T17:13:37;6.90;;;4.93;;
7497;SDS011;3790;48.806;9.140;2023-02-08T17:18:38;8.83;;;4.37;;
7497;SDS011;3790;48.806;9.140;2023-02-08T17:23:39;7.90;;;4.20;;
7497;SDS011;3790;48.806;9.140;2023-02-08T17:28:40;8.10;;;4.83;;
7497;SDS011;3790;48.806;9.140;2023-02-08T17:33:41;9.50;;;5.63;;
7497;SDS011;3790;48.806;9.140;2023-02-08T17:38:43;9.90;;;5.53;;
7497;SDS011;3790;48.806;9.140;2023-02-08T17:43:45;8.77;;;4.83;;
7497;SDS011;3790;48.806;9.140;2023-02-08T17:48:50;13.63;;;6.37;;
7497;SDS011;3790;48.806;9.140;2023-02-08T17:53:51;9.57;;;5.67;;
7497;SDS011;3790;48.806;9.140;2023-02-08T17:58:52;8.70;;;5.43;;
7497;SDS011;3790;48.806;9.140;2023-02-08T18:03:54;10.40;;;6.27;;
7497;SDS011;3790;48.806;9.140;2023-02-08T18:08:54;10.57;;;6.67;;
7497;SDS011;3790;48.806;9.140;2023-02-08T18:13:55;13.43;;;8.10;;
7497;SDS011;3790;48.806;9.140;2023-02-08T18:18:56;15.67;;;8.37;;
7497;SDS011;3790;48.806;9.140;2023-02-08T18:24:02;16.87;;;8.83;;
7497;SDS011;3790;48.806;9.140;2023-02-08T18:29:02;14.23;;;8.10;;
7497;SDS011;3790;48.806;9.140;2023-02-08T18:34:03;16.17;;;8.93;;
7497;SDS011;3790;48.806;9.140;2023-02-08T18:39:04;15.50;;;9.37;;
7497;SDS011;3790;48.806;9.140;2023-02-08T18:44:04;13.27;;;8.43;;
7497;SDS011;3790;48.806;9.140;2023-02-08T18:49:05;19.10;;;9.10;;
7497;SDS011;3790;48.806;9.140;2023-02-08T18:54:06;15.93;;;9.53;;
7497;SDS011;3790;48.806;9.140;2023-02-08T18:59:06;15.80;;;9.37;;
7497;SDS011;3790;48.806;9.140;2023-02-08T19:04:07;16.43;;;9.23;;
7497;SDS011;3790;48.806;9.140;2023-02-08T19:09:08;15.50;;;8.40;;
7497;SDS011;3790;48.806;9.140;2023-02-08T19:14:09;12.67;;;8.40;;
7497;SDS011;3790;48.806;9.140;2023-02-08T19:19:11;15.27;;;8.50;;
7497;SDS011;3790;48.806;9.140;2023-02-08T19:24:12;14.20;;;8.50;;
7497;SDS011;3790;48.806;9.140;2023-02-08T19:29:14;14.00;;;8.70;;
7497;SDS011;3790;48.806;9.140;2023-02-08T19:34:16;15.27;;;8.83;;
7497;SDS011;3790;48.806;9.140;2023-02-08T19:39:22;19.67;;;9.30;;
7497;SDS011;3790;48.806;9.140;2023-02-08T19:44:24;20.47;;;10.10;;
7497;SDS011;3790;48.806;9.140;2023-02-08T19:49:25;19.90;;;9.73;;
7497;SDS011;3790;48.806;9.140;2023-02-08T19:54:26;18.77;;;9.67;;
7497;SDS011;3790;48.806;9.140;2023-02-08T19:59:27;19.30;;;10.47;;
7497;SDS011;3790;48.806;9.140;2023-02-08T20:04:30;15.60;;;8.60;;
7497;SDS011;3790;48.806;9.140;2023-02-08T20:09:31;17.77;;;11.63;;
7497;SDS011;3790;48.806;9.140;2023-02-08T20:14:32;15.87;;;10.10;;
7497;SDS011;3790;48.806;9.140;2023-02-08T20:19:36;22.97;;;9.17;;
7497;SDS011;3790;48.806;9.140;2023-02-08T20:24:37;12.97;;;8.50;;
7497;SDS011;3790;48.806;9.140;2023-02-08T20:29:37;14.20;;;9.07;;
7497;SDS011;3790;48.806;9.140;2023-02-08T20:34:38;18.03;;;10.70;;
7497;SDS011;3790;48.806;9.140;2023-02-08T20:39:38;17.07;;;10.23;;
7497;SDS011;3790;48.806;9.140;2023-02-08T20:44:39;13.57;;;8.47;;
7497;SDS011;3790;48.806;9.140;2023-02-08T20:49:39;17.93;;;9.17;;
7497;SDS011;3790;48.806;9.140;2023-02-08T20:54:41;14.93;;;9.60;;
7497;SDS011;3790;48.806;9.140;2023-02-08T20:59:41;19.07;;;10.53;;
7497;SDS011;3790;48.806;9.140;2023-02-08T21:04:42;25.47;;;14.37;;
7497;SDS011;3790;48.806;9.140;2023-02-08T21:09:43;15.10;;;9.30;;
7497;SDS011;3790;48.806;9.140;2023-02-08T21:14:44;22.33;;;13.83;;
7497;SDS011;3790;48.806;9.140;2023-02-08T21:19:44;19.43;;;11.53;;
7497;SDS011;3790;48.806;9.140;2023-02-08T21:24:46;16.03;;;9.27;;
7497;SDS011;3790;48.806;9.140;2023-02-08T21:29:50;17.87;;;10.83;;
7497;SDS011;3790;48.806;9.140;2023-02-08T21:34:50;18.13;;;9.87;;
7497;SDS011;3790;48.806;9.140;2023-02-08T21:39:51;19.97;;;11.43;;
7497;SDS011;3790;48.806;9.140;2023-02-08T21:44:52;14.20;;;9.17;;
7497;SDS011;3790;48.806;9.140;2023-02-08T21:49:52;16.97;;;9.90;;
7497;SDS011;3790;48.806;9.140;2023-02-08T21:55:11;14.17;;;8.93;;
7497;SDS011;3790;48.806;9.140;2023-02-08T22:00:12;17.37;;;9.57;;
7497;SDS011;3790;48.806;9.140;2023-02-08T22:05:13;16.90;;;10.07;;
7497;SDS011;3790;48.806;9.140;2023-02-08T22:10:32;15.33;;;9.13;;
7497;SDS011;3790;48.806;9.140;2023-02-08T22:15:32;14.67;;;9.23;;
7497;SDS011;3790;48.806;9.140;2023-02-08T22:20:34;20.43;;;10.53;;
7497;SDS011;3790;48.806;9.140;2023-02-08T22:25:34;14.23;;;9.57;;
7497;SDS011;3790;48.806;9.140;2023-02-08T22:30:35;15.07;;;9.27;;
7497;SDS011;3790;48.806;9.140;2023-02-08T22:35:37;19.87;;;10.70;;
7497;SDS011;3790;48.806;9.140;2023-02-08T22:40:39;16.17;;;10.00;;
7497;SDS011;3790;48.806;9.140;2023-02-08T22:45:40;17.50;;;10.43;;
7497;SDS011;3790;48.806;9.140;2023-02-08T22:50:41;16.13;;;9.40;;
7497;SDS011;3790;48.806;9.140;2023-02-08T22:55:48;17.17;;;9.43;;
7497;SDS011;3790;48.806;9.140;2023-02-08T23:00:50;13.97;;;8.67;;
7497;SDS011;3790;48.806;9.140;2023-02-08T23:05:51;13.63;;;8.47;;
7497;SDS011;3790;48.806;9.140;2023-02-08T23:10:56;14.60;;;8.73;;
7497;SDS011;3790;48.806;9.140;2023-02-08T23:15:58;13.63;;;8.87;;
7497;SDS011;3790;48.806;9.140;2023-02-08T23:21:03;16.87;;;9.47;;
7497;SDS011;3790;48.806;9.140;2023-02-08T23:26:05;13.03;;;7.87;;
7497;SDS011;3790;48.806;9.140;2023-02-08T23:31:07;13.83;;;8.17;;
7497;SDS011;3790;48.806;9.140;2023-02-08T23:36:11;15.10;;;8.57;;
7497;SDS011;3790;48.806;9.140;2023-02-08T23:41:15;12.80;;;8.43;;
7497;SDS011;3790;48.806;9.140;2023-02-08T23:46:21;18.33;;;9.10;;
7497;SDS011;3790;48.806;9.140;2023-02-08T23:51:24;16.67;;;8.43;;
7497;SDS011;3790;48.806;9.140;2023-02-08T23:56:25;15.57;;;9.30;;
